sensor_id;sensor_type;location;lat;lon;timestamp;P1;durP1;ratioP1;P2;durP2;ratioP2
44516;SDS011;30223;17.182;-96.766;2023-01-26T00:00:53;8.45;;;5.68;;
44516;SDS011;30223;17.182;-96.766;2023-01-26T00:03:21;8.98;;;5.35;;
44516;SDS011;30223;17.182;-96.766;2023-01-26T00:05:47;8.80;;;6.03;;
44516;SDS011;30223;17.182;-96.766;2023-01-26T00:08:14;11.02;;;6.65;;
44516;SDS011;30223;17.182;-96.766;2023-01-26T00:10:41;9.65;;;5.82;;
44516;SDS011;30223;17.182;-96.766;2023-01-26T00:13:17;9.88;;;5.88;;
44516;SDS011;30223;17.182;-96.766;2023-01-26T00:15:44;8.95;;;5.65;;
44516;SDS011;30223;17.182;-96.766;2023-01-26T00:18:11;8.80;;;6.40;;
44516;SDS011;30223;17.182;-96.766;2023-01-26T00:20:37;8.85;;;6.18;;
44516;SDS011;30223;17.182;-96.766;2023-01-26T00:23:04;8.30;;;6.60;;
44516;SDS011;30223;17.182;-96.766;2023-01-26T00:25:31;9.93;;;6.75;;
44516;SDS011;30223;17.182;-96.766;2023-01-26T00:27:58;12.40;;;7.15;;
44516;SDS011;30223;17.182;-96.766;2023-01-26T00:30:24;8.23;;;6.25;;
44516;SDS011;30223;17.182;-96.766;2023-01-26T00:32:51;10.90;;;6.65;;
44516;SDS011;30223;17.182;-96.766;2023-01-26T00:35:17;8.52;;;6.60;;
44516;SDS011;30223;17.182;-96.766;2023-01-26T00:37:44;9.82;;;6.90;;
44516;SDS011;30223;17.182;-96.766;2023-01-26T00:40:11;8.82;;;6.15;;
44516;SDS011;30223;17.182;-96.766;2023-01-26T00:42:37;10.73;;;6.68;;
44516;SDS011;30223;17.182;-96.766;2023-01-26T00:45:04;10.82;;;6.45;;
44516;SDS011;30223;17.182;-96.766;2023-01-26T00:47:31;10.82;;;6.32;;
44516;SDS011;30223;17.182;-96.766;2023-01-26T00:49:58;10.32;;;7.00;;
44516;SDS011;30223;17.182;-96.766;2023-01-26T00:52:25;10.15;;;6.93;;
44516;SDS011;30223;17.182;-96.766;2023-01-26T00:54:51;10.30;;;6.55;;
44516;SDS011;30223;17.182;-96.766;2023-01-26T00:57:18;10.43;;;6.35;;
44516;SDS011;30223;17.182;-96.766;2023-01-26T00:59:44;8.27;;;6.22;;
44516;SDS011;30223;17.182;-96.766;2023-01-26T01:02:11;9.18;;;6.38;;
44516;SDS011;30223;17.182;-96.766;2023-01-26T01:04:38;8.95;;;5.97;;
44516;SDS011;30223;17.182;-96.766;2023-01-26T01:07:04;10.50;;;7.55;;
44516;SDS011;30223;17.182;-96.766;2023-01-26T01:09:31;11.57;;;7.07;;
44516;SDS011;30223;17.182;-96.766;2023-01-26T01:11:58;9.32;;;6.40;;
44516;SDS011;30223;17.182;-96.766;2023-01-26T01:14:25;6.97;;;5.88;;
44516;SDS011;30223;17.182;-96.766;2023-01-26T01:16:51;8.90;;;6.05;;
44516;SDS011;30223;17.182;-96.766;2023-01-26T01:19:18;9.80;;;6.80;;
44516;SDS011;30223;17.182;-96.766;2023-01-26T01:21:45;12.18;;;6.90;;
44516;SDS011;30223;17.182;-96.766;2023-01-26T01:24:12;13.50;;;6.78;;
44516;SDS011;30223;17.182;-96.766;2023-01-26T01:26:39;9.35;;;6.35;;
44516;SDS011;30223;17.182;-96.766;2023-01-26T01:29:06;9.27;;;6.05;;
44516;SDS011;30223;17.182;-96.766;2023-01-26T01:31:36;7.50;;;5.47;;
44516;SDS011;30223;17.182;-96.766;2023-01-26T01:34:03;8.70;;;5.60;;
44516;SDS011;30223;17.182;-96.766;2023-01-26T01:36:30;9.82;;;6.28;;
44516;SDS011;30223;17.182;-96.766;2023-01-26T01:38:57;8.55;;;5.97;;
44516;SDS011;30223;17.182;-96.766;2023-01-26T01:41:23;8.38;;;5.78;;
44516;SDS011;30223;17.182;-96.766;2023-01-26T01:43:50;7.82;;;5.47;;
44516;SDS011;30223;17.182;-96.766;2023-01-26T01:49:41;8.35;;;6.15;;
44516;SDS011;30223;17.182;-96.766;2023-01-26T01:54:49;8.02;;;5.78;;
44516;SDS011;30223;17.182;-96.766;2023-01-26T01:57:49;7.72;;;5.05;;
44516;SDS011;30223;17.182;-96.766;2023-01-26T02:00:21;9.32;;;6.35;;
44516;SDS011;30223;17.182;-96.766;2023-01-26T02:02:49;8.82;;;6.22;;
44516;SDS011;30223;17.182;-96.766;2023-01-26T02:08:37;8.15;;;5.72;;
44516;SDS011;30223;17.182;-96.766;2023-01-26T02:11:14;9.32;;;6.20;;
44516;SDS011;30223;17.182;-96.766;2023-01-26T02:13:45;7.57;;;5.75;;
44516;SDS011;30223;17.182;-96.766;2023-01-26T02:16:14;6.47;;;4.53;;
44516;SDS011;30223;17.182;-96.766;2023-01-26T02:18:42;10.27;;;6.28;;
44516;SDS011;30223;17.182;-96.766;2023-01-26T02:21:10;8.70;;;5.70;;
44516;SDS011;30223;17.182;-96.766;2023-01-26T02:26:26;11.75;;;4.70;;
44516;SDS011;30223;17.182;-96.766;2023-01-26T02:29:06;7.43;;;4.65;;
44516;SDS011;30223;17.182;-96.766;2023-01-26T02:31:35;7.40;;;4.90;;
44516;SDS011;30223;17.182;-96.766;2023-01-26T02:34:03;7.03;;;4.50;;
44516;SDS011;30223;17.182;-96.766;2023-01-26T02:36:31;6.40;;;4.80;;
44516;SDS011;30223;17.182;-96.766;2023-01-26T02:41:25;8.15;;;4.68;;
44516;SDS011;30223;17.182;-96.766;2023-01-26T02:44:10;7.70;;;4.57;;
44516;SDS011;30223;17.182;-96.766;2023-01-26T02:46:38;10.00;;;5.30;;
44516;SDS011;30223;17.182;-96.766;2023-01-26T02:49:05;7.93;;;4.95;;
44516;SDS011;30223;17.182;-96.766;2023-01-26T02:51:49;7.78;;;4.72;;
44516;SDS011;30223;17.182;-96.766;2023-01-26T02:54:16;7.32;;;5.15;;
44516;SDS011;30223;17.182;-96.766;2023-01-26T02:57:01;6.93;;;4.40;;
44516;SDS011;30223;17.182;-96.766;2023-01-26T02:59:28;7.30;;;4.75;;
44516;SDS011;30223;17.182;-96.766;2023-01-26T03:01:55;5.65;;;4.63;;
44516;SDS011;30223;17.182;-96.766;2023-01-26T03:04:22;6.95;;;4.22;;
44516;SDS011;30223;17.182;-96.766;2023-01-26T03:06:49;5.18;;;4.45;;
44516;SDS011;30223;17.182;-96.766;2023-01-26T03:09:16;7.97;;;4.68;;
44516;SDS011;30223;17.182;-96.766;2023-01-26T03:11:42;7.10;;;4.75;;
44516;SDS011;30223;17.182;-96.766;2023-01-26T03:14:10;9.63;;;4.93;;
44516;SDS011;30223;17.182;-96.766;2023-01-26T03:16:38;7.25;;;4.55;;
44516;SDS011;30223;17.182;-96.766;2023-01-26T03:19:05;6.03;;;4.13;;
44516;SDS011;30223;17.182;-96.766;2023-01-26T03:21:34;13.10;;;6.13;;
44516;SDS011;30223;17.182;-96.766;2023-01-26T03:24:19;7.43;;;4.53;;
44516;SDS011;30223;17.182;-96.766;2023-01-26T03:27:04;5.68;;;4.30;;
44516;SDS011;30223;17.182;-96.766;2023-01-26T03:29:53;7.43;;;4.50;;
44516;SDS011;30223;17.182;-96.766;2023-01-26T03:32:23;8.10;;;4.25;;
44516;SDS011;30223;17.182;-96.766;2023-01-26T03:34:50;6.68;;;4.43;;
44516;SDS011;30223;17.182;-96.766;2023-01-26T03:37:17;6.40;;;4.18;;
44516;SDS011;30223;17.182;-96.766;2023-01-26T03:39:49;5.15;;;3.58;;
44516;SDS011;30223;17.182;-96.766;2023-01-26T03:42:34;6.20;;;4.13;;
44516;SDS011;30223;17.182;-96.766;2023-01-26T03:45:19;5.97;;;4.10;;
44516;SDS011;30223;17.182;-96.766;2023-01-26T03:48:11;5.25;;;4.55;;
44516;SDS011;30223;17.182;-96.766;2023-01-26T03:50:56;6.53;;;4.22;;
44516;SDS011;30223;17.182;-96.766;2023-01-26T03:53:41;5.53;;;3.75;;
44516;SDS011;30223;17.182;-96.766;2023-01-26T03:56:27;7.55;;;4.35;;
44516;SDS011;30223;17.182;-96.766;2023-01-26T03:58:57;5.85;;;3.55;;
44516;SDS011;30223;17.182;-96.766;2023-01-26T04:01:33;9.63;;;5.88;;
44516;SDS011;30223;17.182;-96.766;2023-01-26T04:04:01;7.53;;;4.15;;
44516;SDS011;30223;17.182;-96.766;2023-01-26T04:06:46;6.78;;;4.63;;
44516;SDS011;30223;17.182;-96.766;2023-01-26T04:09:32;6.95;;;4.22;;
44516;SDS011;30223;17.182;-96.766;2023-01-26T04:12:00;6.10;;;4.57;;
44516;SDS011;30223;17.182;-96.766;2023-01-26T04:14:28;7.22;;;3.78;;
44516;SDS011;30223;17.182;-96.766;2023-01-26T04:17:13;6.38;;;3.90;;
44516;SDS011;30223;17.182;-96.766;2023-01-26T04:19:58;7.28;;;4.70;;
44516;SDS011;30223;17.182;-96.766;2023-01-26T04:22:43;5.15;;;3.75;;
44516;SDS011;30223;17.182;-96.766;2023-01-26T04:25:11;7.35;;;3.78;;
44516;SDS011;30223;17.182;-96.766;2023-01-26T04:27:39;7.47;;;4.07;;
44516;SDS011;30223;17.182;-96.766;2023-01-26T04:30:07;4.25;;;3.33;;
44516;SDS011;30223;17.182;-96.766;2023-01-26T04:35:03;6.10;;;3.78;;
44516;SDS011;30223;17.182;-96.766;2023-01-26T04:37:30;4.87;;;3.87;;
44516;SDS011;30223;17.182;-96.766;2023-01-26T04:39:57;6.93;;;3.78;;
44516;SDS011;30223;17.182;-96.766;2023-01-26T04:42:24;6.35;;;3.60;;
44516;SDS011;30223;17.182;-96.766;2023-01-26T04:44:51;5.68;;;3.58;;
44516;SDS011;30223;17.182;-96.766;2023-01-26T04:47:18;7.75;;;5.32;;
44516;SDS011;30223;17.182;-96.766;2023-01-26T04:49:45;6.63;;;4.65;;
44516;SDS011;30223;17.182;-96.766;2023-01-26T04:52:12;5.32;;;3.33;;
44516;SDS011;30223;17.182;-96.766;2023-01-26T04:54:39;9.13;;;4.53;;
44516;SDS011;30223;17.182;-96.766;2023-01-26T04:57:07;5.53;;;3.72;;
44516;SDS011;30223;17.182;-96.766;2023-01-26T04:59:34;7.53;;;4.53;;
44516;SDS011;30223;17.182;-96.766;2023-01-26T05:02:00;6.93;;;3.70;;
44516;SDS011;30223;17.182;-96.766;2023-01-26T05:04:27;4.43;;;3.88;;
44516;SDS011;30223;17.182;-96.766;2023-01-26T05:06:54;7.03;;;4.03;;
44516;SDS011;30223;17.182;-96.766;2023-01-26T05:09:20;7.88;;;4.43;;
44516;SDS011;30223;17.182;-96.766;2023-01-26T05:11:47;7.00;;;4.07;;
44516;SDS011;30223;17.182;-96.766;2023-01-26T05:14:13;7.63;;;4.20;;
44516;SDS011;30223;17.182;-96.766;2023-01-26T05:16:40;6.75;;;4.60;;
44516;SDS011;30223;17.182;-96.766;2023-01-26T05:19:07;7.57;;;4.07;;
44516;SDS011;30223;17.182;-96.766;2023-01-26T05:21:33;7.57;;;4.45;;
44516;SDS011;30223;17.182;-96.766;2023-01-26T05:24:00;9.32;;;3.78;;
44516;SDS011;30223;17.182;-96.766;2023-01-26T05:26:27;8.15;;;4.20;;
44516;SDS011;30223;17.182;-96.766;2023-01-26T05:28:53;7.72;;;4.18;;
44516;SDS011;30223;17.182;-96.766;2023-01-26T05:31:20;8.25;;;4.32;;
44516;SDS011;30223;17.182;-96.766;2023-01-26T05:33:47;6.75;;;4.15;;
44516;SDS011;30223;17.182;-96.766;2023-01-26T05:36:13;7.50;;;3.75;;
44516;SDS011;30223;17.182;-96.766;2023-01-26T05:38:40;6.55;;;3.60;;
44516;SDS011;30223;17.182;-96.766;2023-01-26T05:41:07;5.70;;;4.05;;
44516;SDS011;30223;17.182;-96.766;2023-01-26T05:43:33;10.38;;;3.40;;
44516;SDS011;30223;17.182;-96.766;2023-01-26T05:46:00;5.05;;;3.13;;
44516;SDS011;30223;17.182;-96.766;2023-01-26T05:48:27;5.72;;;3.20;;
44516;SDS011;30223;17.182;-96.766;2023-01-26T05:50:56;7.13;;;3.75;;
44516;SDS011;30223;17.182;-96.766;2023-01-26T05:55:49;8.95;;;4.10;;
44516;SDS011;30223;17.182;-96.766;2023-01-26T05:58:16;7.30;;;3.78;;
44516;SDS011;30223;17.182;-96.766;2023-01-26T06:00:42;7.90;;;3.25;;
44516;SDS011;30223;17.182;-96.766;2023-01-26T06:03:09;6.90;;;4.32;;
44516;SDS011;30223;17.182;-96.766;2023-01-26T06:05:35;6.90;;;4.32;;
44516;SDS011;30223;17.182;-96.766;2023-01-26T06:08:03;5.20;;;3.38;;
44516;SDS011;30223;17.182;-96.766;2023-01-26T06:10:30;6.68;;;3.75;;
44516;SDS011;30223;17.182;-96.766;2023-01-26T06:12:56;4.53;;;2.95;;
44516;SDS011;30223;17.182;-96.766;2023-01-26T06:15:24;7.82;;;3.30;;
44516;SDS011;30223;17.182;-96.766;2023-01-26T06:17:51;6.35;;;3.45;;
44516;SDS011;30223;17.182;-96.766;2023-01-26T06:20:17;4.85;;;3.22;;
44516;SDS011;30223;17.182;-96.766;2023-01-26T06:22:44;5.60;;;3.50;;
44516;SDS011;30223;17.182;-96.766;2023-01-26T06:25:11;8.73;;;3.72;;
44516;SDS011;30223;17.182;-96.766;2023-01-26T06:27:37;3.60;;;2.35;;
44516;SDS011;30223;17.182;-96.766;2023-01-26T06:30:06;5.82;;;2.80;;
44516;SDS011;30223;17.182;-96.766;2023-01-26T06:32:34;6.13;;;3.78;;
44516;SDS011;30223;17.182;-96.766;2023-01-26T06:35:01;6.82;;;3.90;;
44516;SDS011;30223;17.182;-96.766;2023-01-26T06:37:30;4.60;;;2.97;;
44516;SDS011;30223;17.182;-96.766;2023-01-26T06:39:57;5.93;;;3.42;;
44516;SDS011;30223;17.182;-96.766;2023-01-26T06:42:24;4.75;;;3.33;;
44516;SDS011;30223;17.182;-96.766;2023-01-26T06:44:51;4.18;;;3.25;;
44516;SDS011;30223;17.182;-96.766;2023-01-26T06:47:17;4.80;;;3.03;;
44516;SDS011;30223;17.182;-96.766;2023-01-26T06:49:44;4.75;;;2.90;;
44516;SDS011;30223;17.182;-96.766;2023-01-26T06:55:00;5.03;;;2.83;;
44516;SDS011;30223;17.182;-96.766;2023-01-26T06:57:27;5.15;;;3.08;;
44516;SDS011;30223;17.182;-96.766;2023-01-26T06:59:54;4.85;;;2.83;;
44516;SDS011;30223;17.182;-96.766;2023-01-26T07:02:21;6.32;;;3.00;;
44516;SDS011;30223;17.182;-96.766;2023-01-26T07:04:48;7.40;;;3.50;;
44516;SDS011;30223;17.182;-96.766;2023-01-26T07:07:15;5.40;;;4.20;;
44516;SDS011;30223;17.182;-96.766;2023-01-26T07:09:42;4.95;;;3.03;;
44516;SDS011;30223;17.182;-96.766;2023-01-26T07:12:08;10.27;;;3.05;;
44516;SDS011;30223;17.182;-96.766;2023-01-26T07:14:35;4.50;;;3.10;;
44516;SDS011;30223;17.182;-96.766;2023-01-26T07:17:02;6.07;;;3.08;;
44516;SDS011;30223;17.182;-96.766;2023-01-26T07:19:28;4.47;;;3.08;;
44516;SDS011;30223;17.182;-96.766;2023-01-26T07:21:57;5.47;;;3.20;;
44516;SDS011;30223;17.182;-96.766;2023-01-26T07:24:24;4.65;;;2.90;;
44516;SDS011;30223;17.182;-96.766;2023-01-26T07:26:51;3.72;;;2.25;;
44516;SDS011;30223;17.182;-96.766;2023-01-26T07:29:17;5.55;;;3.20;;
44516;SDS011;30223;17.182;-96.766;2023-01-26T07:31:44;4.07;;;3.13;;
44516;SDS011;30223;17.182;-96.766;2023-01-26T07:34:11;4.05;;;3.00;;
44516;SDS011;30223;17.182;-96.766;2023-01-26T07:36:38;6.07;;;3.03;;
44516;SDS011;30223;17.182;-96.766;2023-01-26T07:39:05;6.93;;;2.97;;
44516;SDS011;30223;17.182;-96.766;2023-01-26T07:41:31;3.90;;;3.25;;
44516;SDS011;30223;17.182;-96.766;2023-01-26T07:43:58;6.50;;;3.13;;
44516;SDS011;30223;17.182;-96.766;2023-01-26T07:46:25;4.38;;;2.70;;
44516;SDS011;30223;17.182;-96.766;2023-01-26T07:48:51;5.75;;;3.55;;
44516;SDS011;30223;17.182;-96.766;2023-01-26T07:51:19;4.68;;;2.45;;
44516;SDS011;30223;17.182;-96.766;2023-01-26T07:53:45;4.03;;;2.95;;
44516;SDS011;30223;17.182;-96.766;2023-01-26T07:56:14;7.60;;;3.75;;
44516;SDS011;30223;17.182;-96.766;2023-01-26T07:58:44;6.03;;;3.00;;
44516;SDS011;30223;17.182;-96.766;2023-01-26T08:01:17;5.15;;;3.42;;
44516;SDS011;30223;17.182;-96.766;2023-01-26T08:03:44;6.05;;;3.05;;
44516;SDS011;30223;17.182;-96.766;2023-01-26T08:06:11;4.28;;;2.70;;
44516;SDS011;30223;17.182;-96.766;2023-01-26T08:08:38;4.15;;;2.80;;
44516;SDS011;30223;17.182;-96.766;2023-01-26T08:11:05;5.85;;;3.08;;
44516;SDS011;30223;17.182;-96.766;2023-01-26T08:13:33;4.80;;;3.17;;
44516;SDS011;30223;17.182;-96.766;2023-01-26T08:16:00;4.25;;;2.70;;
44516;SDS011;30223;17.182;-96.766;2023-01-26T08:18:33;4.55;;;2.80;;
44516;SDS011;30223;17.182;-96.766;2023-01-26T08:21:00;3.53;;;2.70;;
44516;SDS011;30223;17.182;-96.766;2023-01-26T08:23:26;4.10;;;2.75;;
44516;SDS011;30223;17.182;-96.766;2023-01-26T08:25:53;5.20;;;3.60;;
44516;SDS011;30223;17.182;-96.766;2023-01-26T08:28:20;5.50;;;2.75;;
44516;SDS011;30223;17.182;-96.766;2023-01-26T08:30:47;5.32;;;2.90;;
44516;SDS011;30223;17.182;-96.766;2023-01-26T08:33:13;5.10;;;3.63;;
44516;SDS011;30223;17.182;-96.766;2023-01-26T08:35:40;4.45;;;3.33;;
44516;SDS011;30223;17.182;-96.766;2023-01-26T08:38:07;4.75;;;2.45;;
44516;SDS011;30223;17.182;-96.766;2023-01-26T08:40:34;4.75;;;2.92;;
44516;SDS011;30223;17.182;-96.766;2023-01-26T08:43:00;4.20;;;3.08;;
44516;SDS011;30223;17.182;-96.766;2023-01-26T08:45:28;4.28;;;2.40;;
44516;SDS011;30223;17.182;-96.766;2023-01-26T08:47:55;4.75;;;2.72;;
44516;SDS011;30223;17.182;-96.766;2023-01-26T08:50:22;3.85;;;2.63;;
44516;SDS011;30223;17.182;-96.766;2023-01-26T08:52:49;3.70;;;2.58;;
44516;SDS011;30223;17.182;-96.766;2023-01-26T08:55:16;3.75;;;2.88;;
44516;SDS011;30223;17.182;-96.766;2023-01-26T08:57:42;7.85;;;3.50;;
44516;SDS011;30223;17.182;-96.766;2023-01-26T09:00:11;4.40;;;3.22;;
44516;SDS011;30223;17.182;-96.766;2023-01-26T09:02:38;3.30;;;2.70;;
44516;SDS011;30223;17.182;-96.766;2023-01-26T09:05:05;3.92;;;2.75;;
44516;SDS011;30223;17.182;-96.766;2023-01-26T09:07:32;6.18;;;3.20;;
44516;SDS011;30223;17.182;-96.766;2023-01-26T09:09:59;4.78;;;3.42;;
44516;SDS011;30223;17.182;-96.766;2023-01-26T09:12:25;4.57;;;3.45;;
44516;SDS011;30223;17.182;-96.766;2023-01-26T09:14:52;3.08;;;2.30;;
44516;SDS011;30223;17.182;-96.766;2023-01-26T09:17:19;4.88;;;3.47;;
44516;SDS011;30223;17.182;-96.766;2023-01-26T09:19:45;5.45;;;3.50;;
44516;SDS011;30223;17.182;-96.766;2023-01-26T09:22:12;3.40;;;2.50;;
44516;SDS011;30223;17.182;-96.766;2023-01-26T09:24:39;3.60;;;2.90;;
44516;SDS011;30223;17.182;-96.766;2023-01-26T09:27:05;3.90;;;2.90;;
44516;SDS011;30223;17.182;-96.766;2023-01-26T09:29:33;5.35;;;2.78;;
44516;SDS011;30223;17.182;-96.766;2023-01-26T09:31:59;4.25;;;3.13;;
44516;SDS011;30223;17.182;-96.766;2023-01-26T09:34:26;3.70;;;2.75;;
44516;SDS011;30223;17.182;-96.766;2023-01-26T09:36:53;3.95;;;2.60;;
44516;SDS011;30223;17.182;-96.766;2023-01-26T09:39:19;5.32;;;2.65;;
44516;SDS011;30223;17.182;-96.766;2023-01-26T09:41:48;4.60;;;3.22;;
44516;SDS011;30223;17.182;-96.766;2023-01-26T09:44:42;4.53;;;3.00;;
44516;SDS011;30223;17.182;-96.766;2023-01-26T09:47:27;3.85;;;3.03;;
44516;SDS011;30223;17.182;-96.766;2023-01-26T09:50:07;3.97;;;2.80;;
44516;SDS011;30223;17.182;-96.766;2023-01-26T09:52:54;5.03;;;3.20;;
44516;SDS011;30223;17.182;-96.766;2023-01-26T09:55:28;4.72;;;2.88;;
44516;SDS011;30223;17.182;-96.766;2023-01-26T09:57:58;4.47;;;2.92;;
44516;SDS011;30223;17.182;-96.766;2023-01-26T10:00:50;4.32;;;2.78;;
44516;SDS011;30223;17.182;-96.766;2023-01-26T10:03:25;3.90;;;2.80;;
44516;SDS011;30223;17.182;-96.766;2023-01-26T10:08:45;4.80;;;2.92;;
44516;SDS011;30223;17.182;-96.766;2023-01-26T10:11:22;5.25;;;3.28;;
44516;SDS011;30223;17.182;-96.766;2023-01-26T10:13:56;3.10;;;2.53;;
44516;SDS011;30223;17.182;-96.766;2023-01-26T10:16:38;4.43;;;2.47;;
44516;SDS011;30223;17.182;-96.766;2023-01-26T10:19:30;3.65;;;2.53;;
44516;SDS011;30223;17.182;-96.766;2023-01-26T10:22:05;4.03;;;3.28;;
44516;SDS011;30223;17.182;-96.766;2023-01-26T10:24:38;4.40;;;2.70;;
44516;SDS011;30223;17.182;-96.766;2023-01-26T10:27:05;4.45;;;3.33;;
44516;SDS011;30223;17.182;-96.766;2023-01-26T10:29:38;2.92;;;2.40;;
44516;SDS011;30223;17.182;-96.766;2023-01-26T10:32:08;5.72;;;3.67;;
44516;SDS011;30223;17.182;-96.766;2023-01-26T10:34:43;3.78;;;2.55;;
44516;SDS011;30223;17.182;-96.766;2023-01-26T10:37:23;4.97;;;3.42;;
44516;SDS011;30223;17.182;-96.766;2023-01-26T10:39:57;7.78;;;2.85;;
44516;SDS011;30223;17.182;-96.766;2023-01-26T10:42:26;4.25;;;2.83;;
44516;SDS011;30223;17.182;-96.766;2023-01-26T10:44:56;3.10;;;2.90;;
44516;SDS011;30223;17.182;-96.766;2023-01-26T10:47:26;3.83;;;2.92;;
44516;SDS011;30223;17.182;-96.766;2023-01-26T10:53:02;4.22;;;2.25;;
44516;SDS011;30223;17.182;-96.766;2023-01-26T10:55:30;4.68;;;2.47;;
44516;SDS011;30223;17.182;-96.766;2023-01-26T10:58:00;3.70;;;2.85;;
44516;SDS011;30223;17.182;-96.766;2023-01-26T11:00:28;4.03;;;2.60;;
44516;SDS011;30223;17.182;-96.766;2023-01-26T11:05:39;3.88;;;2.25;;
44516;SDS011;30223;17.182;-96.766;2023-01-26T11:11:00;4.10;;;2.40;;
44516;SDS011;30223;17.182;-96.766;2023-01-26T11:13:28;4.43;;;2.88;;
44516;SDS011;30223;17.182;-96.766;2023-01-26T11:18:58;5.22;;;2.85;;
44516;SDS011;30223;17.182;-96.766;2023-01-26T11:27:15;4.35;;;2.63;;
44516;SDS011;30223;17.182;-96.766;2023-01-26T11:29:55;3.25;;;2.15;;
44516;SDS011;30223;17.182;-96.766;2023-01-26T11:38:34;3.42;;;2.63;;
44516;SDS011;30223;17.182;-96.766;2023-01-26T11:43:56;9.52;;;2.35;;
44516;SDS011;30223;17.182;-96.766;2023-01-26T11:49:17;3.65;;;2.45;;
44516;SDS011;30223;17.182;-96.766;2023-01-26T11:52:21;2.55;;;2.35;;
44516;SDS011;30223;17.182;-96.766;2023-01-26T11:58:09;3.38;;;2.28;;
44516;SDS011;30223;17.182;-96.766;2023-01-26T12:00:51;3.40;;;2.40;;
44516;SDS011;30223;17.182;-96.766;2023-01-26T12:03:23;5.07;;;2.53;;
44516;SDS011;30223;17.182;-96.766;2023-01-26T12:06:00;4.03;;;2.70;;
44516;SDS011;30223;17.182;-96.766;2023-01-26T12:08:50;4.13;;;2.20;;
44516;SDS011;30223;17.182;-96.766;2023-01-26T12:11:25;4.47;;;3.22;;
44516;SDS011;30223;17.182;-96.766;2023-01-26T12:19:21;3.55;;;2.55;;
44516;SDS011;30223;17.182;-96.766;2023-01-26T12:22:20;4.70;;;2.63;;
44516;SDS011;30223;17.182;-96.766;2023-01-26T12:33:39;4.07;;;3.10;;
44516;SDS011;30223;17.182;-96.766;2023-01-26T12:41:47;3.30;;;2.83;;
44516;SDS011;30223;17.182;-96.766;2023-01-26T12:44:39;4.63;;;2.97;;
44516;SDS011;30223;17.182;-96.766;2023-01-26T12:47:59;6.68;;;3.08;;
44516;SDS011;30223;17.182;-96.766;2023-01-26T12:50:28;4.70;;;2.70;;
44516;SDS011;30223;17.182;-96.766;2023-01-26T12:53:15;4.82;;;2.95;;
44516;SDS011;30223;17.182;-96.766;2023-01-26T12:58:45;4.55;;;3.05;;
44516;SDS011;30223;17.182;-96.766;2023-01-26T13:01:17;3.33;;;1.98;;
44516;SDS011;30223;17.182;-96.766;2023-01-26T13:03:59;5.25;;;2.55;;
44516;SDS011;30223;17.182;-96.766;2023-01-26T13:06:31;5.85;;;2.95;;
44516;SDS011;30223;17.182;-96.766;2023-01-26T13:11:47;5.65;;;3.05;;
44516;SDS011;30223;17.182;-96.766;2023-01-26T13:14:36;5.63;;;3.83;;
44516;SDS011;30223;17.182;-96.766;2023-01-26T13:24:55;4.13;;;3.15;;
44516;SDS011;30223;17.182;-96.766;2023-01-26T13:29:59;4.28;;;2.92;;
44516;SDS011;30223;17.182;-96.766;2023-01-26T13:34:56;4.55;;;3.25;;
44516;SDS011;30223;17.182;-96.766;2023-01-26T13:40:13;6.60;;;3.38;;
44516;SDS011;30223;17.182;-96.766;2023-01-26T13:42:57;3.58;;;2.63;;
44516;SDS011;30223;17.182;-96.766;2023-01-26T13:51:09;4.95;;;2.50;;
44516;SDS011;30223;17.182;-96.766;2023-01-26T13:53:40;6.00;;;4.03;;
44516;SDS011;30223;17.182;-96.766;2023-01-26T13:56:23;5.78;;;3.00;;
44516;SDS011;30223;17.182;-96.766;2023-01-26T13:59:04;4.43;;;3.00;;
44516;SDS011;30223;17.182;-96.766;2023-01-26T14:01:39;4.82;;;3.25;;
44516;SDS011;30223;17.182;-96.766;2023-01-26T14:04:23;8.45;;;4.43;;
44516;SDS011;30223;17.182;-96.766;2023-01-26T14:06:53;5.55;;;3.28;;
44516;SDS011;30223;17.182;-96.766;2023-01-26T14:09:24;5.07;;;3.53;;
44516;SDS011;30223;17.182;-96.766;2023-01-26T14:11:55;5.32;;;2.95;;
44516;SDS011;30223;17.182;-96.766;2023-01-26T14:14:27;8.35;;;2.72;;
44516;SDS011;30223;17.182;-96.766;2023-01-26T14:16:56;8.00;;;3.08;;
44516;SDS011;30223;17.182;-96.766;2023-01-26T14:19:23;3.85;;;2.25;;
44516;SDS011;30223;17.182;-96.766;2023-01-26T14:21:52;5.63;;;3.20;;
44516;SDS011;30223;17.182;-96.766;2023-01-26T14:24:30;4.57;;;2.83;;
44516;SDS011;30223;17.182;-96.766;2023-01-26T14:26:57;6.53;;;3.78;;
44516;SDS011;30223;17.182;-96.766;2023-01-26T14:29:25;4.43;;;2.40;;
44516;SDS011;30223;17.182;-96.766;2023-01-26T14:31:54;6.95;;;2.88;;
44516;SDS011;30223;17.182;-96.766;2023-01-26T14:34:28;3.15;;;2.40;;
44516;SDS011;30223;17.182;-96.766;2023-01-26T14:37:15;4.68;;;2.55;;
44516;SDS011;30223;17.182;-96.766;2023-01-26T14:39:43;6.97;;;3.03;;
44516;SDS011;30223;17.182;-96.766;2023-01-26T14:42:12;4.95;;;3.17;;
44516;SDS011;30223;17.182;-96.766;2023-01-26T14:44:41;4.05;;;2.25;;
44516;SDS011;30223;17.182;-96.766;2023-01-26T14:47:16;4.47;;;2.88;;
44516;SDS011;30223;17.182;-96.766;2023-01-26T14:52:23;4.00;;;2.55;;
44516;SDS011;30223;17.182;-96.766;2023-01-26T14:54:52;3.17;;;2.13;;
44516;SDS011;30223;17.182;-96.766;2023-01-26T14:57:22;3.33;;;2.38;;
44516;SDS011;30223;17.182;-96.766;2023-01-26T14:59:54;5.50;;;2.55;;
44516;SDS011;30223;17.182;-96.766;2023-01-26T15:02:25;3.78;;;2.72;;
44516;SDS011;30223;17.182;-96.766;2023-01-26T15:05:01;5.78;;;2.95;;
44516;SDS011;30223;17.182;-96.766;2023-01-26T15:10:27;2.85;;;2.28;;
44516;SDS011;30223;17.182;-96.766;2023-01-26T15:15:40;3.42;;;2.53;;
44516;SDS011;30223;17.182;-96.766;2023-01-26T15:20:40;4.20;;;2.90;;
44516;SDS011;30223;17.182;-96.766;2023-01-26T15:23:28;3.72;;;2.20;;
44516;SDS011;30223;17.182;-96.766;2023-01-26T15:25:55;4.18;;;2.38;;
44516;SDS011;30223;17.182;-96.766;2023-01-26T15:28:29;4.63;;;2.40;;
44516;SDS011;30223;17.182;-96.766;2023-01-26T15:30:57;4.25;;;2.50;;
44516;SDS011;30223;17.182;-96.766;2023-01-26T15:36:26;3.63;;;1.80;;
44516;SDS011;30223;17.182;-96.766;2023-01-26T15:39:10;5.60;;;2.78;;
44516;SDS011;30223;17.182;-96.766;2023-01-26T15:41:39;3.83;;;2.20;;
44516;SDS011;30223;17.182;-96.766;2023-01-26T15:44:16;5.05;;;2.03;;
44516;SDS011;30223;17.182;-96.766;2023-01-26T15:46:45;2.75;;;2.03;;
44516;SDS011;30223;17.182;-96.766;2023-01-26T15:49:12;3.97;;;2.42;;
44516;SDS011;30223;17.182;-96.766;2023-01-26T15:51:39;3.65;;;2.17;;
44516;SDS011;30223;17.182;-96.766;2023-01-26T15:54:08;3.90;;;2.63;;
44516;SDS011;30223;17.182;-96.766;2023-01-26T15:56:35;3.10;;;1.98;;
44516;SDS011;30223;17.182;-96.766;2023-01-26T15:59:02;3.25;;;1.88;;
44516;SDS011;30223;17.182;-96.766;2023-01-26T16:01:28;3.95;;;2.20;;
44516;SDS011;30223;17.182;-96.766;2023-01-26T16:03:55;3.63;;;1.70;;
44516;SDS011;30223;17.182;-96.766;2023-01-26T16:06:23;4.70;;;2.05;;
44516;SDS011;30223;17.182;-96.766;2023-01-26T16:11:22;2.78;;;1.75;;
44516;SDS011;30223;17.182;-96.766;2023-01-26T16:13:53;3.53;;;2.00;;
44516;SDS011;30223;17.182;-96.766;2023-01-26T16:16:21;2.08;;;1.60;;
44516;SDS011;30223;17.182;-96.766;2023-01-26T16:18:52;3.63;;;1.45;;
44516;SDS011;30223;17.182;-96.766;2023-01-26T16:21:20;1.77;;;1.48;;
44516;SDS011;30223;17.182;-96.766;2023-01-26T16:23:53;3.75;;;1.40;;
44516;SDS011;30223;17.182;-96.766;2023-01-26T16:26:20;2.38;;;1.73;;
44516;SDS011;30223;17.182;-96.766;2023-01-26T16:28:47;2.53;;;1.70;;
44516;SDS011;30223;17.182;-96.766;2023-01-26T16:31:14;2.63;;;1.73;;
44516;SDS011;30223;17.182;-96.766;2023-01-26T16:33:55;4.50;;;2.30;;
44516;SDS011;30223;17.182;-96.766;2023-01-26T16:36:22;2.33;;;1.83;;
44516;SDS011;30223;17.182;-96.766;2023-01-26T16:38:49;2.65;;;2.05;;
44516;SDS011;30223;17.182;-96.766;2023-01-26T16:41:23;4.15;;;1.85;;